Augusta, Georgia
Current Conditions -  °F | °C
As of 9:53 AM on Wednesday 26 Nov 2014 (Local Time) from KDNL Reporting Station
Overcast Overcast  
Wind Chill: 51°   Ceiling: 700
Heat Index: 51°   Visibility: 10mi
Dew Point: 48°   Wind: 8mph
Humidity: 89%   Direction: 310°NW
Pressure: 30.04"   Gusts: NA
Location:  33.48°N, 81.97°W
Report Text: KDNL 261453Z AUTO 31007KT 10SM OVC007 11/09 A3004 RMK AO2 RAE16 CIG 004V011 SLP172 P0000 60006 T01060089 51029
Loading
Personal Weather Stations






























Interactive Weather Map New forecast layout! Learn more

10-Day Weather Forecast

Advertisements
Track Severe Weather on mobile